createdAt,value
2018-09-03T00:00:20.586Z,74.07
2018-09-03T00:01:20.605Z,74.26
2018-09-03T00:02:20.637Z,75.23
2018-09-03T00:03:20.649Z,74.26
2018-09-03T00:04:20.666Z,74.51
2018-09-03T00:05:20.688Z,75.09
2018-09-03T00:06:20.708Z,76.31
2018-09-03T00:07:20.730Z,77.26
2018-09-03T00:08:20.754Z,77.90
2018-09-03T00:09:20.770Z,78.28
2018-09-03T00:10:20.790Z,78.00
2018-09-03T00:11:20.809Z,79.25
2018-09-03T00:12:20.834Z,79.35
2018-09-03T00:13:20.848Z,79.25
2018-09-03T00:14:20.871Z,78.96
2018-09-03T00:15:20.888Z,79.79
2018-09-03T00:16:20.909Z,81.04
2018-09-03T00:17:20.930Z,80.46
2018-09-03T00:18:20.949Z,79.50
2018-09-03T00:19:20.972Z,78.67
2018-09-03T00:20:21.013Z,79.15
2018-09-03T00:21:21.011Z,80.07
2018-09-03T00:22:21.032Z,79.60
2018-09-03T00:23:21.054Z,79.69
2018-09-03T00:24:21.070Z,79.60
2018-09-03T00:25:21.096Z,79.60
2018-09-03T00:26:21.111Z,81.38
2018-09-03T00:27:21.129Z,82.68
2018-09-03T00:28:21.150Z,83.64
2018-09-03T00:29:21.176Z,83.54
2018-09-03T00:30:21.195Z,82.34
2018-09-03T00:31:21.209Z,82.15
2018-09-03T00:32:21.229Z,81.57
2018-09-03T00:33:21.251Z,80.99
2018-09-03T00:34:21.270Z,80.90
2018-09-03T00:35:21.292Z,80.46
2018-09-03T00:36:21.309Z,80.99
2018-09-03T00:37:21.331Z,80.80
2018-09-03T00:38:21.371Z,80.90
2018-09-03T00:39:21.369Z,80.61
2018-09-03T00:40:21.387Z,80.84
2018-09-03T00:41:21.409Z,81.57
2018-09-03T00:42:21.427Z,81.76
2018-09-03T00:43:21.450Z,80.99
2018-09-03T00:44:21.466Z,80.65
2018-09-03T00:45:21.486Z,80.46
2018-09-03T00:46:21.508Z,80.07
2018-09-03T00:47:21.527Z,80.75
2018-09-03T00:48:21.547Z,80.75
2018-09-03T00:49:21.566Z,80.84
2018-09-03T00:50:21.587Z,80.94
2018-09-03T00:51:21.610Z,80.94
2018-09-03T00:52:21.626Z,82.05
2018-09-03T00:53:21.646Z,81.48
2018-09-03T00:54:21.670Z,81.96
2018-09-03T00:55:21.688Z,82.73
2018-09-03T00:56:21.706Z,82.43
2018-09-03T00:57:21.724Z,83.49
2018-09-03T00:58:21.743Z,84.80
2018-09-03T00:59:21.765Z,85.85
2018-09-03T01:00:21.786Z,85.37
2018-09-03T01:01:21.804Z,84.80
2018-09-03T01:02:21.822Z,83.93
2018-09-03T01:03:21.842Z,84.85
2018-09-03T01:04:21.866Z,85.91
2018-09-03T01:05:21.886Z,86.48
2018-09-03T01:06:21.901Z,86.48
2018-09-03T01:07:21.922Z,86.68
2018-09-03T01:08:21.942Z,86.92
2018-09-03T01:09:21.966Z,87.15
2018-09-03T01:10:21.980Z,86.92
2018-09-03T01:11:22.000Z,87.49
2018-09-03T01:12:22.024Z,86.87
2018-09-03T01:13:22.039Z,85.81
2018-09-03T01:14:22.060Z,86.58
2018-09-03T01:15:22.082Z,85.81
2018-09-03T01:16:22.099Z,85.37
2018-09-03T01:17:22.117Z,85.18
2018-09-03T01:18:22.137Z,84.60
2018-09-03T01:19:22.156Z,84.12
2018-09-03T01:20:22.176Z,84.31
2018-09-03T01:21:22.194Z,83.84
2018-09-03T01:22:22.212Z,84.22
2018-09-03T01:23:22.265Z,84.12
2018-09-03T01:24:22.249Z,84.60
2018-09-03T01:25:22.271Z,84.89
2018-09-03T01:26:22.291Z,85.33
2018-09-03T01:27:22.311Z,85.75
2018-09-03T01:28:22.331Z,84.89
2018-09-03T01:29:22.350Z,83.93
2018-09-03T01:30:22.405Z,84.70
2018-09-03T01:31:22.389Z,84.41
2018-09-03T01:32:22.408Z,85.28
2018-09-03T01:33:22.427Z,85.95
2018-09-03T01:34:22.449Z,86.05
2018-09-03T01:35:22.465Z,84.89
2018-09-03T01:36:22.491Z,84.70
2018-09-03T01:37:22.507Z,84.22
2018-09-03T01:38:22.525Z,83.69
2018-09-03T01:39:22.543Z,84.60
2018-09-03T01:40:22.567Z,84.99
2018-09-03T01:41:22.583Z,84.80
2018-09-03T01:42:22.604Z,85.08
2018-09-03T01:43:22.626Z,85.08
2018-09-03T01:44:22.645Z,85.08
2018-09-03T01:45:22.661Z,85.75
2018-09-03T01:46:22.688Z,85.95
2018-09-03T01:47:22.706Z,86.14
2018-09-03T01:48:22.720Z,86.52
2018-09-03T01:49:22.744Z,87.01
2018-09-03T01:50:22.759Z,86.72
2018-09-03T01:51:22.780Z,85.95
2018-09-03T01:52:22.800Z,88.02
2018-09-03T01:53:22.823Z,87.25
2018-09-03T01:54:22.842Z,87.10
2018-09-03T01:55:22.856Z,86.72
2018-09-03T01:56:22.877Z,86.91
2018-09-03T01:57:22.953Z,87.19
2018-09-03T01:58:22.918Z,86.62
2018-09-03T01:59:22.936Z,87.10
2018-09-03T02:00:22.954Z,85.95
2018-09-03T02:01:22.974Z,85.66
2018-09-03T02:02:22.992Z,85.75
2018-09-03T02:03:23.016Z,86.72
2018-09-03T02:04:23.035Z,87.39
2018-09-03T02:05:23.053Z,88.25
2018-09-03T02:06:23.076Z,89.36
2018-09-03T02:07:23.093Z,90.42
2018-09-03T02:08:23.114Z,90.42
2018-09-03T02:09:23.134Z,89.75
2018-09-03T02:10:23.154Z,88.06
2018-09-03T02:11:23.172Z,87.01
2018-09-03T02:12:23.215Z,86.18
2018-09-03T02:13:23.210Z,86.09
2018-09-03T02:14:23.232Z,85.75
2018-09-03T02:15:23.248Z,85.41
2018-09-03T02:16:23.268Z,84.84
2018-09-03T02:17:23.290Z,83.97
2018-09-03T02:18:23.309Z,84.45
2018-09-03T02:19:23.327Z,85.03
2018-09-03T02:20:23.347Z,84.74
2018-09-03T02:21:23.371Z,84.36
2018-09-03T02:22:23.388Z,83.83
2018-09-03T02:23:23.414Z,83.83
2018-09-03T02:24:23.438Z,83.78
2018-09-03T02:25:23.456Z,83.63
2018-09-03T02:26:23.468Z,83.73
2018-09-03T02:27:23.488Z,82.96
2018-09-03T02:28:23.505Z,83.06
2018-09-03T02:29:23.524Z,83.15
2018-09-03T02:30:23.551Z,83.83
2018-09-03T02:31:23.566Z,85.13
2018-09-03T02:32:23.588Z,84.94
2018-09-03T02:33:23.606Z,85.89
2018-09-03T02:34:23.623Z,85.61
2018-09-03T02:35:23.638Z,86.18
2018-09-03T02:36:23.665Z,87.68
2018-09-03T02:37:23.686Z,86.85
2018-09-03T02:38:23.709Z,86.28
2018-09-03T02:39:23.728Z,85.80
2018-09-03T02:40:23.740Z,86.28
2018-09-03T02:41:23.759Z,87.05
2018-09-03T02:42:23.793Z,86.76
2018-09-03T02:43:23.800Z,87.15
2018-09-03T02:44:23.821Z,88.16
2018-09-03T02:45:23.839Z,88.83
2018-09-03T02:46:23.859Z,88.54
2018-09-03T02:47:23.881Z,89.40
2018-09-03T02:48:23.898Z,88.64
2018-09-03T02:49:23.923Z,88.93
2018-09-03T02:50:23.936Z,87.24
2018-09-03T02:51:23.958Z,86.76
2018-09-03T02:52:23.981Z,85.89
2018-09-03T02:53:23.996Z,86.18
2018-09-03T02:54:24.018Z,86.47
2018-09-03T02:55:24.039Z,87.49
2018-09-03T02:56:24.061Z,87.58
2018-09-03T02:57:24.074Z,87.19
2018-09-03T02:58:24.093Z,86.47
2018-09-03T02:59:24.113Z,85.71
2018-09-03T03:00:24.135Z,86.09
2018-09-03T03:01:24.169Z,85.07
2018-09-03T03:02:24.171Z,84.98
2018-09-03T03:03:24.195Z,84.11
2018-09-03T03:04:24.218Z,84.50
2018-09-03T03:05:24.231Z,83.53
2018-09-03T03:06:24.247Z,84.11
2018-09-03T03:07:24.271Z,84.01
2018-09-03T03:08:24.321Z,84.69
2018-09-03T03:09:24.309Z,83.63
2018-09-03T03:10:24.326Z,84.30
2018-09-03T03:11:24.346Z,83.92
2018-09-03T03:12:24.368Z,84.59
2018-09-03T03:13:24.400Z,84.01
2018-09-03T03:14:24.407Z,83.83
2018-09-03T03:15:24.433Z,84.11
2018-09-03T03:16:24.448Z,84.40
2018-09-03T03:17:24.467Z,84.40
2018-09-03T03:18:24.484Z,84.40
2018-09-03T03:19:24.507Z,84.40
2018-09-03T03:20:24.528Z,85.71
2018-09-03T03:21:24.543Z,86.66
2018-09-03T03:22:24.565Z,86.09
2018-09-03T03:23:24.582Z,86.04
2018-09-03T03:24:24.603Z,84.88
2018-09-03T03:25:24.624Z,85.36
2018-09-03T03:26:24.642Z,85.17
2018-09-03T03:27:24.663Z,84.88
2018-09-03T03:28:24.692Z,85.65
2018-09-03T03:29:24.708Z,86.04
2018-09-03T03:30:24.734Z,85.55
2018-09-03T03:31:24.743Z,86.22
2018-09-03T03:32:24.764Z,87.15
2018-09-03T03:33:24.784Z,87.05
2018-09-03T03:34:24.799Z,86.99
2018-09-03T03:35:24.821Z,86.99
2018-09-03T03:36:24.846Z,88.39
2018-09-03T03:37:24.865Z,89.64
2018-09-03T03:38:24.883Z,89.26
2018-09-03T03:39:24.900Z,90.17
2018-09-03T03:40:24.918Z,90.94
2018-09-03T03:41:24.938Z,92.00
2018-09-03T03:42:24.960Z,93.34
2018-09-03T03:43:24.984Z,92.38
2018-09-03T03:44:24.999Z,91.13
2018-09-03T03:45:25.020Z,92.10
2018-09-03T03:46:25.037Z,92.96
2018-09-03T03:47:25.057Z,91.52
2018-09-03T03:48:25.103Z,90.41
2018-09-03T03:49:25.100Z,89.93
2018-09-03T03:50:25.121Z,89.93
2018-09-03T03:51:25.137Z,90.37
2018-09-03T03:52:25.160Z,91.13
2018-09-03T03:53:25.178Z,90.17
2018-09-03T03:54:25.196Z,90.03
2018-09-03T03:55:25.216Z,88.49
2018-09-03T03:56:25.236Z,87.72
2018-09-03T03:57:25.255Z,87.29
2018-09-03T03:58:25.276Z,87.29
2018-09-03T03:59:25.294Z,88.01
2018-09-03T04:00:25.319Z,88.20
2018-09-03T04:01:25.337Z,88.30
2018-09-03T04:02:25.354Z,88.10
2018-09-03T04:03:25.410Z,88.20
2018-09-03T04:04:25.428Z,88.24
2018-09-03T04:05:25.412Z,88.15
2018-09-03T04:06:25.432Z,87.96
2018-09-03T04:07:25.453Z,88.63
2018-09-03T04:08:25.473Z,88.53
2018-09-03T04:09:25.504Z,89.45
2018-09-03T04:10:25.514Z,90.99
2018-09-03T04:11:25.534Z,90.60
2018-09-03T04:12:25.552Z,90.51
2018-09-03T04:13:25.573Z,90.99
2018-09-03T04:14:25.590Z,90.60
2018-09-03T04:15:25.611Z,90.51
2018-09-03T04:16:25.629Z,89.69
2018-09-03T04:17:25.651Z,88.63
2018-09-03T04:18:25.670Z,88.63
2018-09-03T04:19:25.688Z,88.63
2018-09-03T04:20:25.707Z,89.40
2018-09-03T04:21:25.866Z,90.65
2018-09-03T04:22:25.745Z,90.55
2018-09-03T04:23:25.925Z,90.84
2018-09-03T04:24:25.788Z,90.36
2018-09-03T04:25:25.811Z,89.40
2018-09-03T04:26:25.826Z,88.77
2018-09-03T04:27:25.846Z,88.10
2018-09-03T04:28:25.868Z,87.62
2018-09-03T04:29:25.884Z,88.10
2018-09-03T04:30:25.907Z,88.00
2018-09-03T04:31:25.933Z,87.62
2018-09-03T04:32:25.943Z,87.42
2018-09-03T04:33:25.969Z,86.89
2018-09-03T04:34:25.987Z,87.13
2018-09-03T04:35:26.010Z,87.62
2018-09-03T04:36:26.029Z,87.52
2018-09-03T04:37:26.042Z,87.62
2018-09-03T04:38:26.064Z,87.52
2018-09-03T04:39:26.080Z,87.71
2018-09-03T04:40:26.105Z,87.56
2018-09-03T04:41:26.125Z,86.60
2018-09-03T04:42:26.142Z,87.08
2018-09-03T04:43:26.164Z,86.99
2018-09-03T04:44:26.186Z,86.99
2018-09-03T04:45:26.207Z,88.00
2018-09-03T04:46:26.222Z,89.35
2018-09-03T04:47:26.242Z,88.96
2018-09-03T04:48:26.264Z,89.06
2018-09-03T04:49:26.298Z,89.06
2018-09-03T04:50:26.301Z,88.96
2018-09-03T04:51:26.321Z,88.62
2018-09-03T04:52:26.344Z,88.33
2018-09-03T04:53:26.364Z,88.04
2018-09-03T04:54:26.403Z,87.18
2018-09-03T04:55:26.403Z,87.37
2018-09-03T04:56:26.421Z,87.18
2018-09-03T04:57:26.482Z,87.27
2018-09-03T04:58:26.462Z,86.99
2018-09-03T04:59:26.481Z,87.08
2018-09-03T05:00:26.499Z,87.32
2018-09-03T05:01:26.582Z,86.99
2018-09-03T05:02:26.541Z,87.32
2018-09-03T05:03:26.565Z,87.51
2018-09-03T05:04:26.583Z,86.83
2018-09-03T05:05:26.636Z,87.32
2018-09-03T05:06:26.622Z,86.74
2018-09-03T05:07:26.643Z,87.22
2018-09-03T05:08:26.664Z,87.32
2018-09-03T05:09:26.685Z,87.37
2018-09-03T05:10:26.701Z,88.71
2018-09-03T05:11:26.724Z,88.71
2018-09-03T05:12:26.743Z,88.71
2018-09-03T05:13:26.762Z,89.01
2018-09-03T05:14:26.786Z,88.81
2018-09-03T05:15:26.802Z,88.71
2018-09-03T05:16:26.830Z,88.43
2018-09-03T05:17:26.846Z,88.18
2018-09-03T05:18:26.865Z,89.10
2018-09-03T05:19:26.884Z,89.78
2018-09-03T05:20:26.910Z,89.58
2018-09-03T05:21:26.931Z,90.16
2018-09-03T05:22:26.948Z,91.08
2018-09-03T05:23:26.968Z,90.55
2018-09-03T05:24:26.988Z,89.68
2018-09-03T05:25:27.008Z,89.05
2018-09-03T05:26:27.031Z,88.18
2018-09-03T05:27:27.049Z,87.26
2018-09-03T05:28:27.068Z,87.26
2018-09-03T05:29:27.090Z,87.99
2018-09-03T05:30:27.107Z,87.46
2018-09-03T05:31:27.130Z,86.25
2018-09-03T05:32:27.152Z,86.35
2018-09-03T05:33:27.173Z,85.57
2018-09-03T05:34:27.191Z,84.65
2018-09-03T05:35:27.211Z,83.69
2018-09-03T05:36:27.230Z,83.11
2018-09-03T05:37:27.256Z,83.01
2018-09-03T05:38:27.276Z,82.92
2018-09-03T05:39:27.295Z,82.53
2018-09-03T05:40:27.316Z,83.69
2018-09-03T05:41:27.334Z,83.11
2018-09-03T05:42:27.360Z,82.34
2018-09-03T05:43:27.512Z,83.01
2018-09-03T05:44:27.399Z,82.87
2018-09-03T05:45:27.420Z,83.78
2018-09-03T05:46:27.443Z,83.59
2018-09-03T05:47:27.462Z,83.55
2018-09-03T05:48:27.481Z,83.36
2018-09-03T05:49:27.517Z,83.50
2018-09-03T05:50:27.745Z,83.84
2018-09-03T05:51:27.546Z,84.42
2018-09-03T05:52:27.568Z,84.32
2018-09-03T05:53:27.603Z,83.59
2018-09-03T05:54:27.606Z,82.72
2018-09-03T05:55:27.627Z,83.36
2018-09-03T05:56:27.649Z,84.80
2018-09-03T05:57:27.672Z,84.32
2018-09-03T05:58:27.721Z,84.03
2018-09-03T05:59:27.712Z,83.55
2018-09-03T06:00:27.742Z,83.36
2018-09-03T06:01:27.756Z,83.69
2018-09-03T06:02:27.779Z,83.07
2018-09-03T06:03:27.794Z,82.62
2018-09-03T06:04:27.817Z,82.72
2018-09-03T06:05:27.837Z,82.72
2018-09-03T06:06:27.859Z,84.22
2018-09-03T06:07:27.878Z,85.34
2018-09-03T06:08:27.902Z,86.11
2018-09-03T06:09:28.057Z,86.40
2018-09-03T06:10:27.955Z,86.49
2018-09-03T06:11:27.970Z,86.11
2018-09-03T06:12:27.996Z,86.26
2018-09-03T06:13:28.007Z,86.69
2018-09-03T06:14:28.026Z,86.30
2018-09-03T06:15:28.047Z,86.30
2018-09-03T06:16:28.068Z,86.21
2018-09-03T06:17:28.086Z,87.36
2018-09-03T06:18:28.115Z,88.47
2018-09-03T06:19:28.130Z,88.76
2018-09-03T06:20:28.150Z,88.95
2018-09-03T06:21:28.171Z,88.67
2018-09-03T06:22:28.192Z,86.78
2018-09-03T06:23:28.212Z,85.86
2018-09-03T06:24:28.230Z,85.57
2018-09-03T06:25:28.252Z,84.75
2018-09-03T06:26:28.281Z,84.42
2018-09-03T06:27:28.300Z,85.34
2018-09-03T06:28:28.318Z,87.07
2018-09-03T06:29:28.339Z,87.26
2018-09-03T06:30:28.359Z,85.28
2018-09-03T06:31:28.379Z,84.84
2018-09-03T06:32:28.398Z,84.61
2018-09-03T06:33:28.419Z,85.19
2018-09-03T06:34:28.442Z,84.84
2018-09-03T06:35:28.461Z,83.69
2018-09-03T06:36:28.483Z,83.98
2018-09-03T06:37:28.505Z,82.86
2018-09-03T06:38:28.534Z,81.51
2018-09-03T06:39:28.560Z,82.24
2018-09-03T06:40:28.568Z,81.95
2018-09-03T06:41:28.588Z,82.57
2018-09-03T06:42:28.611Z,81.26
2018-09-03T06:43:28.634Z,81.32
2018-09-03T06:44:28.653Z,81.51
2018-09-03T06:45:28.676Z,81.60
2018-09-03T06:46:28.694Z,81.12
2018-09-03T06:47:28.714Z,81.51
2018-09-03T06:48:28.740Z,81.51
2018-09-03T06:49:28.767Z,82.05
2018-09-03T06:50:28.782Z,82.43
2018-09-03T06:51:28.805Z,81.99
2018-09-03T06:52:28.827Z,81.51
2018-09-03T06:53:28.896Z,81.90
2018-09-03T06:54:28.864Z,81.41
2018-09-03T06:55:28.891Z,81.22
2018-09-03T06:56:28.958Z,82.14
2018-09-03T06:57:29.008Z,83.11
2018-09-03T06:58:28.948Z,82.18
2018-09-03T06:59:29.033Z,81.41
2018-09-03T07:00:28.989Z,81.85
2018-09-03T07:01:29.017Z,81.99
2018-09-03T07:02:29.032Z,81.70
2018-09-03T07:03:29.063Z,81.22
2018-09-03T07:04:29.077Z,81.02
2018-09-03T07:05:29.100Z,81.07
2018-09-03T07:06:29.116Z,79.75
2018-09-03T07:07:29.144Z,80.10
2018-09-03T07:08:29.164Z,80.49
2018-09-03T07:09:29.182Z,80.62
2018-09-03T07:10:29.205Z,79.37
2018-09-03T07:11:29.228Z,79.02
2018-09-03T07:12:29.248Z,77.86
2018-09-03T07:13:29.271Z,77.76
2018-09-03T07:14:29.291Z,76.97
2018-09-03T07:15:29.314Z,74.53
2018-09-03T07:16:29.338Z,72.44
2018-09-03T07:17:29.359Z,71.64
2018-09-03T07:18:29.381Z,68.54
2018-09-03T07:19:29.403Z,67.80
2018-09-03T07:20:29.425Z,65.30
2018-09-03T07:21:29.450Z,64.26
2018-09-03T07:22:29.474Z,63.13
2018-09-03T07:23:29.498Z,60.53
2018-09-03T07:24:29.523Z,60.08
2018-09-03T07:25:29.547Z,59.03
2018-09-03T07:26:29.578Z,58.54
2018-09-03T07:27:29.592Z,59.92
2018-09-03T07:28:29.619Z,61.15
2018-09-03T07:29:29.645Z,60.96
2018-09-03T07:30:29.676Z,61.51
2018-09-03T07:31:29.696Z,62.10
2018-09-03T07:32:29.730Z,63.32
2018-09-03T07:33:29.742Z,63.98
2018-09-03T07:34:29.767Z,64.17
2018-09-03T07:35:29.807Z,63.04
2018-09-03T07:36:29.821Z,64.33
2018-09-03T07:37:29.844Z,66.30
2018-09-03T07:38:29.869Z,68.05
2018-09-03T07:39:29.896Z,70.76
2018-09-03T07:40:29.920Z,70.21
2018-09-03T07:41:29.943Z,70.66
2018-09-03T07:42:29.966Z,68.70
2018-09-03T07:43:29.992Z,67.95
2018-09-03T07:44:30.018Z,66.02
2018-09-03T07:45:30.041Z,63.71
2018-09-03T07:46:30.065Z,65.72
2018-09-03T07:47:30.132Z,67.53
2018-09-03T07:48:30.118Z,67.21
2018-09-03T07:49:30.143Z,64.72
2018-09-03T07:50:30.167Z,63.20
2018-09-03T07:51:30.195Z,64.65
2018-09-03T07:52:30.218Z,63.68
2018-09-03T07:53:30.264Z,63.17
2018-09-03T07:54:30.264Z,66.75
2018-09-03T07:55:30.286Z,66.72
2018-09-03T07:56:30.314Z,64.01
2018-09-03T07:57:30.337Z,63.78
2018-09-03T07:58:30.365Z,62.32
2018-09-03T07:59:30.390Z,61.68
2018-09-03T08:00:30.414Z,63.82
2018-09-03T08:01:30.437Z,65.47
2018-09-03T08:02:30.463Z,64.27
2018-09-03T08:03:30.489Z,66.47
2018-09-03T08:04:30.514Z,63.68
2018-09-03T08:05:30.540Z,65.08
2018-09-03T08:06:30.560Z,65.14
2018-09-03T08:07:30.713Z,63.59
2018-09-03T08:08:30.612Z,63.88
2018-09-03T08:09:30.637Z,65.30
2018-09-03T08:10:30.662Z,66.53
2018-09-03T08:11:30.684Z,65.08
2018-09-03T08:12:30.717Z,65.17
2018-09-03T08:13:30.737Z,65.30
2018-09-03T08:14:30.805Z,65.75
2018-09-03T08:15:30.786Z,66.79
2018-09-03T08:16:30.809Z,68.12
2018-09-03T08:17:30.835Z,68.85
2018-09-03T08:18:30.858Z,71.40
2018-09-03T08:19:30.884Z,72.08
2018-09-03T08:20:30.907Z,72.91
2018-09-03T08:21:30.930Z,73.39
2018-09-03T08:22:30.998Z,73.36
2018-09-03T08:23:30.977Z,73.20
2018-09-03T08:24:31.001Z,72.46
2018-09-03T08:25:31.027Z,72.85
2018-09-03T08:26:31.062Z,73.55
2018-09-03T08:27:31.071Z,74.17
2018-09-03T08:28:31.096Z,72.60
2018-09-03T08:29:31.117Z,70.60
2018-09-03T08:30:31.150Z,70.95
2018-09-03T08:31:31.162Z,70.01
2018-09-03T08:32:31.190Z,68.30
2018-09-03T08:33:31.212Z,67.92
2018-09-03T08:34:31.232Z,67.95
2018-09-03T08:35:31.337Z,67.60
2018-09-03T08:36:31.279Z,67.85
2018-09-03T08:37:31.307Z,68.15
2018-09-03T08:38:31.325Z,68.44
2018-09-03T08:39:31.360Z,67.76
2018-09-03T08:40:31.382Z,67.11
2018-09-03T08:41:31.397Z,66.17
2018-09-03T08:42:31.420Z,66.92
2018-09-03T08:43:31.447Z,67.21
2018-09-03T08:44:31.470Z,67.99
2018-09-03T08:45:31.496Z,66.53
2018-09-03T08:46:31.517Z,66.82
2018-09-03T08:47:31.537Z,67.21
2018-09-03T08:48:31.559Z,68.15
2018-09-03T08:49:31.584Z,68.24
2018-09-03T08:50:31.619Z,68.50
2018-09-03T08:51:31.634Z,67.60
2018-09-03T08:52:31.657Z,66.66
2018-09-03T08:53:31.680Z,66.14
2018-09-03T08:54:31.702Z,66.24
2018-09-03T08:55:31.732Z,66.27
2018-09-03T08:56:31.773Z,65.89
2018-09-03T08:57:31.777Z,65.79
2018-09-03T08:58:31.794Z,66.24
2018-09-03T08:59:31.816Z,65.59
2018-09-03T09:00:31.860Z,65.82
2018-09-03T09:01:31.865Z,66.11
2018-09-03T09:02:31.891Z,65.92
2018-09-03T09:03:31.957Z,66.02
2018-09-03T09:04:31.934Z,66.92
2018-09-03T09:05:31.962Z,67.47
2018-09-03T09:06:31.986Z,69.53
2018-09-03T09:07:32.002Z,70.50
2018-09-03T09:08:32.029Z,72.27
2018-09-03T09:09:32.052Z,72.98
2018-09-03T09:10:32.079Z,72.60
2018-09-03T09:11:32.099Z,70.73
2018-09-03T09:12:32.120Z,71.18
2018-09-03T09:13:32.142Z,71.92
2018-09-03T09:14:32.165Z,73.24
2018-09-03T09:15:32.194Z,72.98
2018-09-03T09:16:32.213Z,72.34
2018-09-03T09:17:32.267Z,71.37
2018-09-03T09:18:32.257Z,71.50
2018-09-03T09:19:32.286Z,70.44
2018-09-03T09:20:32.303Z,70.63
2018-09-03T09:21:32.336Z,70.54
2018-09-03T09:22:32.349Z,69.24
2018-09-03T09:23:32.375Z,67.79
2018-09-03T09:24:32.441Z,68.28
2018-09-03T09:25:32.418Z,68.08
2018-09-03T09:26:32.459Z,67.34
2018-09-03T09:27:32.471Z,66.95
2018-09-03T09:28:32.494Z,67.24
2018-09-03T09:29:32.512Z,67.31
2018-09-03T09:30:32.534Z,67.85
2018-09-03T09:31:32.555Z,70.05
2018-09-03T09:32:32.582Z,70.98
2018-09-03T09:33:32.606Z,70.63
2018-09-03T09:34:32.626Z,69.21
2018-09-03T09:35:32.649Z,69.82
2018-09-03T09:36:32.683Z,71.66
2018-09-03T09:37:32.697Z,71.12
2018-09-03T09:38:32.724Z,69.99
2018-09-03T09:39:32.740Z,69.24
2018-09-03T09:40:32.765Z,69.67
2018-09-03T09:41:32.797Z,69.95
2018-09-03T09:42:32.867Z,70.09
2018-09-03T09:43:32.913Z,69.76
2018-09-03T09:44:32.885Z,71.56
2018-09-03T09:45:32.883Z,73.24
2018-09-03T09:46:32.900Z,73.43
2018-09-03T09:47:32.923Z,73.33
2018-09-03T09:48:32.950Z,73.57
2018-09-03T09:49:32.976Z,71.92
2018-09-03T09:50:32.994Z,71.62
2018-09-03T09:51:33.015Z,73.37
2018-09-03T09:52:33.042Z,72.63
2018-09-03T09:53:33.062Z,71.76
2018-09-03T09:54:33.085Z,71.31
2018-09-03T09:55:33.109Z,69.95
2018-09-03T09:56:33.131Z,69.37
2018-09-03T09:57:33.156Z,69.50
2018-09-03T09:58:33.176Z,69.57
2018-09-03T09:59:33.198Z,72.02
2018-09-03T10:00:33.222Z,73.27
2018-09-03T10:01:33.249Z,74.11
2018-09-03T10:02:33.264Z,74.94
2018-09-03T10:03:33.289Z,75.52
2018-09-03T10:04:33.311Z,74.94
2018-09-03T10:05:33.334Z,74.59
2018-09-03T10:06:33.354Z,75.13
2018-09-03T10:07:33.379Z,74.85
2018-09-03T10:08:33.400Z,75.62
2018-09-03T10:09:33.423Z,75.78
2018-09-03T10:10:33.444Z,76.45
2018-09-03T10:11:33.469Z,76.55
2018-09-03T10:12:33.487Z,76.84
2018-09-03T10:13:33.511Z,78.19
2018-09-03T10:14:33.536Z,77.42
2018-09-03T10:15:33.556Z,77.38
2018-09-03T10:16:33.582Z,76.49
2018-09-03T10:17:33.602Z,75.62
2018-09-03T10:18:33.622Z,76.35
2018-09-03T10:19:33.644Z,76.64
2018-09-03T10:20:33.665Z,77.76
2018-09-03T10:21:33.689Z,78.06
2018-09-03T10:22:33.720Z,78.44
2018-09-03T10:23:33.735Z,78.92
2018-09-03T10:24:33.754Z,79.56
2018-09-03T10:25:33.772Z,78.54
2018-09-03T10:26:33.795Z,78.34
2018-09-03T10:27:33.818Z,78.64
2018-09-03T10:28:33.843Z,78.89
2018-09-03T10:29:33.866Z,79.31
2018-09-03T10:30:33.884Z,79.50
2018-09-03T10:31:33.907Z,79.60
2018-09-03T10:32:33.931Z,79.12
2018-09-03T10:33:33.948Z,79.02
2018-09-03T10:34:33.972Z,78.38
2018-09-03T10:35:33.993Z,77.61
2018-09-03T10:36:34.014Z,76.97
2018-09-03T10:37:34.039Z,76.49
2018-09-03T10:38:34.059Z,76.20
2018-09-03T10:39:34.077Z,75.75
2018-09-03T10:40:34.101Z,75.65
2018-09-03T10:41:34.119Z,74.88
2018-09-03T10:42:34.145Z,74.92
2018-09-03T10:43:34.162Z,73.95
2018-09-03T10:44:34.185Z,74.63
2018-09-03T10:45:34.206Z,75.79
2018-09-03T10:46:34.228Z,76.53
2018-09-03T10:47:34.302Z,77.11
2018-09-03T10:48:34.276Z,75.98
2018-09-03T10:49:34.295Z,76.14
2018-09-03T10:50:34.313Z,77.11
2018-09-03T10:51:34.336Z,77.94
2018-09-03T10:52:34.360Z,79.10
2018-09-03T10:53:34.381Z,78.13
2018-09-03T10:54:34.402Z,77.01
2018-09-03T10:55:34.429Z,77.20
2018-09-03T10:56:34.514Z,77.30
2018-09-03T10:57:34.597Z,77.30
2018-09-03T10:58:34.492Z,77.69
2018-09-03T10:59:34.510Z,80.80
2018-09-03T11:00:34.531Z,82.54
2018-09-03T11:01:34.555Z,82.93
2018-09-03T11:02:34.576Z,83.85
2018-09-03T11:03:34.596Z,83.37
2018-09-03T11:04:34.615Z,85.21
2018-09-03T11:05:34.644Z,85.59
2018-09-03T11:06:34.663Z,86.56
2018-09-03T11:07:34.683Z,87.48
2018-09-03T11:08:34.708Z,87.48
2018-09-03T11:09:34.739Z,88.15
2018-09-03T11:10:34.747Z,89.51
2018-09-03T11:11:34.768Z,88.35
2018-09-03T11:12:34.797Z,87.29
2018-09-03T11:13:34.812Z,88.25
2018-09-03T11:14:34.831Z,88.39
2018-09-03T11:15:34.855Z,86.07
2018-09-03T11:16:34.879Z,85.53
2018-09-03T11:17:34.897Z,84.47
2018-09-03T11:18:34.922Z,83.89
2018-09-03T11:19:34.948Z,84.09
2018-09-03T11:20:34.962Z,83.03
2018-09-03T11:21:35.192Z,83.51
2018-09-03T11:22:35.004Z,86.31
2018-09-03T11:23:35.028Z,84.47
2018-09-03T11:24:35.060Z,84.03
2018-09-03T11:25:35.074Z,82.97
2018-09-03T11:26:35.092Z,84.42
2018-09-03T11:27:35.114Z,83.06
2018-09-03T11:28:35.138Z,85.40
2018-09-03T11:29:35.155Z,84.43
2018-09-03T11:30:35.180Z,83.99
2018-09-03T11:31:35.204Z,83.80
2018-09-03T11:32:35.220Z,84.38
2018-09-03T11:33:35.244Z,82.97
2018-09-03T11:34:35.264Z,82.87
2018-09-03T11:35:35.285Z,83.36
2018-09-03T11:36:35.309Z,83.94
2018-09-03T11:37:35.329Z,85.25
2018-09-03T11:38:35.351Z,86.51
2018-09-03T11:39:35.387Z,87.13
2018-09-03T11:40:35.395Z,89.94
2018-09-03T11:41:35.416Z,91.87
2018-09-03T11:42:35.438Z,90.08
2018-09-03T11:43:35.460Z,91.49
2018-09-03T11:44:35.481Z,90.56
2018-09-03T11:45:35.503Z,89.15
2018-09-03T11:46:35.526Z,89.15
2018-09-03T11:47:35.549Z,88.48
2018-09-03T11:48:35.569Z,89.54
2018-09-03T11:49:35.591Z,89.11
2018-09-03T11:50:35.612Z,89.06
2018-09-03T11:51:35.633Z,89.74
2018-09-03T11:52:35.662Z,89.29
2018-09-03T11:53:35.677Z,90.46
2018-09-03T11:54:35.765Z,90.07
2018-09-03T11:55:35.719Z,89.69
2018-09-03T11:56:35.742Z,88.53
2018-09-03T11:57:35.766Z,88.13
2018-09-03T11:58:35.790Z,88.91
2018-09-03T11:59:35.819Z,88.09
2018-09-03T12:00:35.875Z,88.96
2018-09-03T12:01:35.866Z,89.29
2018-09-03T12:02:35.879Z,87.55
2018-09-03T12:03:35.899Z,88.33
2018-09-03T12:04:35.920Z,86.69
2018-09-03T12:05:35.941Z,86.88
2018-09-03T12:06:35.976Z,88.04
2018-09-03T12:07:35.989Z,87.75
2018-09-03T12:08:36.009Z,89.11
2018-09-03T12:09:36.032Z,87.75
2018-09-03T12:10:36.064Z,87.75
2018-09-03T12:11:36.077Z,88.57
2018-09-03T12:12:36.100Z,88.39
2018-09-03T12:13:36.120Z,86.98
2018-09-03T12:14:36.145Z,86.10
2018-09-03T12:15:36.164Z,85.62
2018-09-03T12:16:36.192Z,86.89
2018-09-03T12:17:36.212Z,86.69
2018-09-03T12:18:36.233Z,87.08
2018-09-03T12:19:36.264Z,86.60
2018-09-03T12:20:36.281Z,88.97
2018-09-03T12:21:36.316Z,88.87
2018-09-03T12:22:36.323Z,89.55
2018-09-03T12:23:36.347Z,91.39
2018-09-03T12:24:36.371Z,90.33
2018-09-03T12:25:36.393Z,90.66
2018-09-03T12:26:36.412Z,90.27
2018-09-03T12:27:36.446Z,87.90
2018-09-03T12:28:36.457Z,87.51
2018-09-03T12:29:36.479Z,86.59
2018-09-03T12:30:36.503Z,85.76
2018-09-03T12:31:36.523Z,84.89
2018-09-03T12:32:36.550Z,84.84
2018-09-03T12:33:36.569Z,86.31
2018-09-03T12:34:36.592Z,89.31
2018-09-03T12:35:36.615Z,87.71
2018-09-03T12:36:36.637Z,86.01
2018-09-03T12:37:36.665Z,85.76
2018-09-03T12:38:36.678Z,85.24
2018-09-03T12:39:36.710Z,86.59
2018-09-03T12:40:36.728Z,85.62
2018-09-03T12:41:36.749Z,84.94
2018-09-03T12:42:36.769Z,84.99
2018-09-03T12:43:36.791Z,84.16
2018-09-03T12:44:36.815Z,83.09
2018-09-03T12:45:36.877Z,82.32
2018-09-03T12:46:36.872Z,83.77
2018-09-03T12:47:36.884Z,83.28
2018-09-03T12:48:36.903Z,83.86
2018-09-03T12:49:36.936Z,84.25
2018-09-03T12:50:36.951Z,83.09
2018-09-03T12:51:36.976Z,82.51
2018-09-03T12:52:36.995Z,82.26